createdAt,value
2022-09-21T00:01:13.748Z,23.90
2022-09-21T00:03:43.420Z,23.91
2022-09-21T00:06:20.640Z,23.91
2022-09-21T00:08:48.071Z,23.89
2022-09-21T00:11:17.532Z,23.88
2022-09-21T00:13:45.898Z,23.91
2022-09-21T00:16:13.069Z,23.90
2022-09-21T00:18:39.768Z,23.90
2022-09-21T00:21:08.831Z,23.87
2022-09-21T00:23:36.126Z,23.90
2022-09-21T00:26:10.380Z,23.89
2022-09-21T00:28:37.031Z,23.87
2022-09-21T00:31:05.121Z,23.86
2022-09-21T00:33:32.222Z,23.89
2022-09-21T00:36:04.530Z,23.89
2022-09-21T00:38:31.128Z,23.87
2022-09-21T00:40:58.169Z,23.85
2022-09-21T00:43:24.789Z,23.88
2022-09-21T00:46:06.640Z,23.76
2022-09-21T00:48:33.817Z,23.86
2022-09-21T00:51:06.341Z,23.85
2022-09-21T00:53:33.885Z,23.88
2022-09-21T00:56:02.856Z,23.43
2022-09-21T00:58:46.451Z,23.84
2022-09-21T01:01:16.208Z,23.84
2022-09-21T01:03:45.655Z,23.86
2022-09-21T01:06:17.504Z,23.86
2022-09-21T01:08:47.000Z,23.84
2022-09-21T01:11:29.504Z,23.82
2022-09-21T01:14:24.285Z,23.85
2022-09-21T01:17:03.995Z,23.85
2022-09-21T01:19:39.819Z,23.82
2022-09-21T01:22:20.272Z,23.81
2022-09-21T01:25:13.400Z,23.83
2022-09-21T01:27:53.924Z,23.82
2022-09-21T01:30:22.791Z,23.71
2022-09-21T01:32:57.779Z,23.46
2022-09-21T01:35:39.835Z,23.82
2022-09-21T01:38:17.909Z,23.81
2022-09-21T01:40:50.987Z,23.79
2022-09-21T01:43:26.234Z,23.82
2022-09-21T01:45:57.300Z,23.82
2022-09-21T01:48:25.622Z,23.81
2022-09-21T01:50:56.323Z,23.75
2022-09-21T01:53:32.207Z,23.81
2022-09-21T01:56:05.731Z,23.82
2022-09-21T01:58:42.019Z,23.80
2022-09-21T02:01:12.815Z,23.77
2022-09-21T02:03:43.471Z,23.81
2022-09-21T02:06:11.975Z,23.80
2022-09-21T02:08:39.174Z,23.79
2022-09-21T02:11:07.835Z,23.77
2022-09-21T02:13:39.281Z,23.79
2022-09-21T02:16:09.034Z,23.80
2022-09-21T02:19:11.222Z,23.78
2022-09-21T02:22:00.020Z,23.76
2022-09-21T02:24:29.689Z,23.79
2022-09-21T02:27:16.471Z,23.79
2022-09-21T02:30:01.781Z,23.76
2022-09-21T02:33:01.149Z,23.75
2022-09-21T02:35:52.032Z,23.76
2022-09-21T02:38:37.123Z,23.75
2022-09-21T02:41:09.652Z,23.72
2022-09-21T02:43:51.701Z,23.75
2022-09-21T02:46:42.824Z,23.75
2022-09-21T02:49:20.826Z,23.72
2022-09-21T02:51:51.128Z,23.72
2022-09-21T02:54:22.967Z,23.75
2022-09-21T02:56:51.441Z,23.74
2022-09-21T02:59:18.403Z,23.72
2022-09-21T03:01:45.240Z,23.70
2022-09-21T03:04:11.891Z,23.74
2022-09-21T03:06:38.698Z,23.74
2022-09-21T03:09:05.404Z,23.72
2022-09-21T03:11:32.294Z,23.72
2022-09-21T03:13:59.638Z,23.75
2022-09-21T03:16:26.297Z,23.74
2022-09-21T03:18:52.844Z,23.73
2022-09-21T03:21:19.392Z,23.71
2022-09-21T03:23:45.891Z,23.73
2022-09-21T03:26:12.492Z,23.35
2022-09-21T03:28:39.408Z,23.71
2022-09-21T03:31:06.712Z,23.70
2022-09-21T03:33:33.312Z,23.71
2022-09-21T03:35:59.907Z,23.35
2022-09-21T03:38:26.851Z,23.71
2022-09-21T03:40:57.824Z,23.69
2022-09-21T03:43:25.167Z,23.72
2022-09-21T03:45:52.096Z,23.72
2022-09-21T03:48:18.887Z,23.71
2022-09-21T03:50:45.530Z,23.57
2022-09-21T03:53:12.200Z,23.32
2022-09-21T03:55:38.763Z,23.73
2022-09-21T03:58:05.849Z,23.63
2022-09-21T04:00:33.036Z,23.57
2022-09-21T04:02:59.928Z,23.72
2022-09-21T04:05:27.676Z,23.73
2022-09-21T04:07:55.338Z,23.70
2022-09-21T04:10:27.034Z,23.69
2022-09-21T04:12:57.799Z,23.70
2022-09-21T04:15:24.422Z,23.72
2022-09-21T04:17:52.372Z,23.70
2022-09-21T04:20:20.084Z,23.58
2022-09-21T04:22:47.464Z,23.55
2022-09-21T04:25:15.359Z,23.70
2022-09-21T04:27:41.943Z,23.70
2022-09-21T04:30:11.623Z,23.67
2022-09-21T04:32:38.155Z,23.68
2022-09-21T04:35:05.238Z,23.71
2022-09-21T04:37:31.752Z,23.69
2022-09-21T04:39:58.567Z,23.69
2022-09-21T04:42:25.128Z,23.68
2022-09-21T04:44:51.680Z,23.70
2022-09-21T04:47:19.339Z,23.67
2022-09-21T04:49:45.895Z,23.69
2022-09-21T04:52:15.853Z,23.68
2022-09-21T04:54:46.084Z,23.71
2022-09-21T04:57:13.151Z,23.69
2022-09-21T04:59:39.700Z,23.67
2022-09-21T05:02:06.532Z,23.66
2022-09-21T05:04:33.227Z,23.69
2022-09-21T05:06:59.794Z,23.68
2022-09-21T05:09:44.987Z,23.66
2022-09-21T05:12:11.508Z,23.63
2022-09-21T05:14:37.991Z,23.67
2022-09-21T05:17:04.624Z,23.66
2022-09-21T05:19:31.115Z,23.64
2022-09-21T05:21:57.684Z,23.63
2022-09-21T05:24:24.920Z,23.66
2022-09-21T05:26:51.509Z,23.65
2022-09-21T05:29:18.404Z,23.57
2022-09-21T05:32:03.271Z,23.59
2022-09-21T05:35:06.108Z,23.63
2022-09-21T05:37:38.649Z,23.60
2022-09-21T05:40:06.742Z,23.58
2022-09-21T05:42:33.647Z,23.57
2022-09-21T05:45:00.786Z,23.60
2022-09-21T05:47:44.447Z,23.58
2022-09-21T05:50:29.628Z,23.57
2022-09-21T05:53:14.504Z,23.57
2022-09-21T05:55:57.911Z,23.58
2022-09-21T05:58:27.133Z,23.58
2022-09-21T06:01:15.455Z,23.56
2022-09-21T06:03:42.776Z,23.58
2022-09-21T06:06:09.996Z,23.58
2022-09-21T06:08:39.739Z,23.58
2022-09-21T06:11:06.235Z,23.57
2022-09-21T06:13:32.901Z,23.61
2022-09-21T06:16:03.356Z,23.50
2022-09-21T06:18:30.061Z,23.61
2022-09-21T06:20:56.555Z,23.59
2022-09-21T06:23:23.388Z,23.63
2022-09-21T06:25:56.070Z,23.64
2022-09-21T06:28:25.234Z,23.62
2022-09-21T06:30:53.175Z,23.63
2022-09-21T06:33:23.368Z,23.58
2022-09-21T06:35:55.185Z,23.67
2022-09-21T06:38:22.073Z,23.66
2022-09-21T06:40:49.812Z,23.66
2022-09-21T06:43:16.567Z,23.69
2022-09-21T06:45:43.507Z,23.71
2022-09-21T06:48:10.223Z,23.64
2022-09-21T06:50:36.807Z,23.58
2022-09-21T06:53:03.774Z,23.70
2022-09-21T06:55:31.529Z,23.72
2022-09-21T06:58:02.914Z,23.71
2022-09-21T07:00:30.843Z,23.70
2022-09-21T07:02:57.760Z,23.73
2022-09-21T07:05:24.710Z,23.75
2022-09-21T07:07:59.185Z,23.75
2022-09-21T07:10:26.218Z,23.76
2022-09-21T07:12:52.879Z,23.67
2022-09-21T07:15:21.325Z,23.81
2022-09-21T07:17:52.539Z,23.81
2022-09-21T07:20:19.304Z,23.78
2022-09-21T07:22:45.775Z,23.83
2022-09-21T07:25:12.473Z,23.86
2022-09-21T07:27:39.140Z,23.87
2022-09-21T07:30:07.094Z,23.87
2022-09-21T07:32:33.746Z,23.89
2022-09-21T07:35:00.785Z,23.81
2022-09-21T07:37:29.776Z,23.90
2022-09-21T07:39:56.457Z,23.92
2022-09-21T07:42:24.077Z,23.94
2022-09-21T07:44:51.290Z,23.99
2022-09-21T07:47:18.629Z,23.98
2022-09-21T07:49:49.109Z,23.99
2022-09-21T07:52:15.880Z,24.00
2022-09-21T07:54:42.493Z,24.05
2022-09-21T07:57:27.754Z,24.05
2022-09-21T07:59:57.147Z,24.05
2022-09-21T08:02:27.110Z,24.08
2022-09-21T08:04:54.088Z,24.11
2022-09-21T08:07:20.692Z,24.02
2022-09-21T08:09:49.375Z,24.12
2022-09-21T08:12:18.599Z,24.14
2022-09-21T08:14:45.603Z,24.19
2022-09-21T08:17:12.376Z,24.23
2022-09-21T08:19:39.122Z,24.13
2022-09-21T08:22:06.427Z,24.25
2022-09-21T08:24:33.494Z,24.32
2022-09-21T08:27:00.132Z,24.31
2022-09-21T08:29:26.947Z,24.31
2022-09-21T08:31:53.708Z,24.21
2022-09-21T08:34:20.348Z,24.34
2022-09-21T08:36:47.601Z,24.35
2022-09-21T08:39:15.408Z,24.34
2022-09-21T08:42:03.100Z,24.34
2022-09-21T08:44:39.580Z,24.32
2022-09-21T08:47:45.204Z,24.37
2022-09-21T08:50:22.254Z,24.36
2022-09-21T08:52:52.114Z,24.38
2022-09-21T08:55:20.777Z,24.40
2022-09-21T08:57:47.492Z,24.38
2022-09-21T09:00:16.737Z,24.47
2022-09-21T09:02:49.120Z,24.50
2022-09-21T09:05:33.773Z,24.51
2022-09-21T09:08:03.110Z,24.48
2022-09-21T09:10:43.800Z,24.47
2022-09-21T09:13:19.251Z,24.47
2022-09-21T09:15:52.249Z,24.47
2022-09-21T09:18:25.512Z,24.45
2022-09-21T09:21:03.757Z,24.42
2022-09-21T09:23:49.807Z,24.44
2022-09-21T09:26:25.436Z,24.35
2022-09-21T09:28:58.748Z,24.42
2022-09-21T09:31:29.623Z,24.41
2022-09-21T09:34:07.906Z,24.42
2022-09-21T09:36:57.285Z,24.42
2022-09-21T09:39:23.974Z,24.41
2022-09-21T09:42:02.727Z,24.39
2022-09-21T09:44:34.841Z,24.40
2022-09-21T09:47:29.714Z,24.38
2022-09-21T09:50:25.002Z,24.37
2022-09-21T09:52:57.803Z,24.38
2022-09-21T09:55:39.920Z,24.37
2022-09-21T09:58:22.595Z,24.26
2022-09-21T10:00:53.312Z,24.36
2022-09-21T10:03:23.331Z,24.36
2022-09-21T10:05:50.802Z,24.37
2022-09-21T10:08:36.864Z,24.35
2022-09-21T10:11:04.147Z,24.33
2022-09-21T10:13:33.760Z,24.35
2022-09-21T10:16:11.283Z,24.37
2022-09-21T10:18:39.753Z,24.36
2022-09-21T10:21:09.183Z,24.35
2022-09-21T10:23:38.428Z,24.24
2022-09-21T10:26:07.647Z,24.35
2022-09-21T10:28:35.331Z,24.24
2022-09-21T10:31:31.221Z,24.33
2022-09-21T10:34:03.934Z,24.34
2022-09-21T10:36:37.647Z,24.35
2022-09-21T10:39:18.708Z,24.33
2022-09-21T10:41:50.589Z,24.32
2022-09-21T10:44:20.179Z,24.33
2022-09-21T10:46:50.233Z,24.25
2022-09-21T10:49:28.885Z,24.32
2022-09-21T10:51:59.126Z,24.31
2022-09-21T10:54:33.769Z,24.34
2022-09-21T10:57:04.219Z,24.33
2022-09-21T10:59:37.249Z,24.21
2022-09-21T11:02:32.984Z,24.32
2022-09-21T11:05:16.350Z,24.28
2022-09-21T11:07:52.319Z,24.33
2022-09-21T11:10:46.387Z,24.31
2022-09-21T11:13:54.346Z,24.33
2022-09-21T11:16:30.179Z,24.34
2022-09-21T11:19:05.941Z,24.32
2022-09-21T11:21:38.455Z,24.30
2022-09-21T11:24:24.966Z,24.32
2022-09-21T11:27:04.257Z,24.31
2022-09-21T11:29:53.840Z,24.31
2022-09-21T11:32:55.120Z,24.30
2022-09-21T11:35:58.648Z,24.31
2022-09-21T11:38:43.769Z,24.28
2022-09-21T11:41:15.613Z,24.26
2022-09-21T11:44:16.358Z,24.31
2022-09-21T11:46:43.880Z,24.30
2022-09-21T11:49:41.922Z,24.28
2022-09-21T11:52:26.715Z,24.27
2022-09-21T11:55:08.155Z,24.30
2022-09-21T11:57:54.205Z,24.35
2022-09-21T12:00:23.471Z,23.94
2022-09-21T12:03:13.116Z,24.37
2022-09-21T12:05:56.051Z,24.35
2022-09-21T12:08:44.448Z,24.32
2022-09-21T12:11:34.959Z,24.31
2022-09-21T12:14:23.784Z,24.54
2022-09-21T12:17:18.381Z,24.66
2022-09-21T12:19:54.387Z,24.69
2022-09-21T12:22:29.310Z,24.73
2022-09-21T12:25:02.618Z,24.68
2022-09-21T12:27:41.511Z,24.44
2022-09-21T12:30:29.230Z,24.40
2022-09-21T12:33:16.232Z,24.34
2022-09-21T12:35:47.846Z,24.34
2022-09-21T12:38:23.518Z,24.33
2022-09-21T12:40:59.755Z,24.30
2022-09-21T12:43:41.470Z,24.28
2022-09-21T12:46:15.110Z,24.25
2022-09-21T12:48:45.854Z,24.24
2022-09-21T12:51:28.321Z,24.22
2022-09-21T12:53:59.066Z,24.20
2022-09-21T12:56:45.067Z,24.18
2022-09-21T12:59:24.763Z,24.18
2022-09-21T13:01:57.337Z,24.16
2022-09-21T13:04:46.352Z,24.16
2022-09-21T13:10:22.102Z,24.15
2022-09-21T13:13:02.130Z,24.14
2022-09-21T13:15:32.564Z,24.14
2022-09-21T13:18:02.852Z,24.14
2022-09-21T13:20:36.590Z,24.11
2022-09-21T13:23:04.679Z,24.13
2022-09-21T13:25:38.163Z,24.13
2022-09-21T13:28:19.804Z,24.12
2022-09-21T13:31:09.950Z,24.12
2022-09-21T13:34:19.463Z,24.12
2022-09-21T13:37:11.746Z,24.11
2022-09-21T13:39:44.503Z,24.11
2022-09-21T13:42:29.841Z,24.11
2022-09-21T13:45:19.367Z,24.10
2022-09-21T13:47:53.203Z,24.09
2022-09-21T13:50:43.478Z,24.09
2022-09-21T13:53:29.919Z,24.11
2022-09-21T13:56:24.830Z,24.09
2022-09-21T13:58:57.698Z,24.10
2022-09-21T14:01:46.674Z,24.09
2022-09-21T14:04:25.716Z,24.10
2022-09-21T14:06:54.815Z,24.11
2022-09-21T14:09:31.588Z,24.10
2022-09-21T14:12:02.573Z,24.11
2022-09-21T14:14:41.475Z,24.10
2022-09-21T14:17:34.435Z,24.10
2022-09-21T14:20:01.241Z,24.09
2022-09-21T14:22:28.057Z,24.09
2022-09-21T14:25:27.021Z,24.09
2022-09-21T14:27:59.629Z,24.09
2022-09-21T14:30:32.081Z,24.07
2022-09-21T14:33:02.280Z,24.08
2022-09-21T14:35:56.556Z,24.07
2022-09-21T14:38:30.387Z,24.07
2022-09-21T14:41:07.530Z,24.07
2022-09-21T14:43:37.375Z,24.08
2022-09-21T14:46:38.439Z,24.07
2022-09-21T14:49:26.944Z,24.08
2022-09-21T14:52:13.341Z,24.08
2022-09-21T14:54:59.062Z,24.06
2022-09-21T14:57:55.985Z,24.07
2022-09-21T15:00:26.571Z,24.06
2022-09-21T15:03:39.014Z,24.08
2022-09-21T15:06:32.808Z,24.08
2022-09-21T15:09:17.923Z,24.08
2022-09-21T15:11:50.915Z,24.08
2022-09-21T15:14:59.778Z,24.08
2022-09-21T15:17:29.921Z,24.07
2022-09-21T15:20:13.038Z,24.08
2022-09-21T15:22:43.320Z,24.07
2022-09-21T15:25:13.819Z,24.06
2022-09-21T15:27:46.651Z,24.07
2022-09-21T15:30:22.317Z,24.00
2022-09-21T15:32:55.707Z,24.02
2022-09-21T15:35:29.157Z,24.03
2022-09-21T15:37:57.184Z,24.06
2022-09-21T15:40:50.165Z,24.06
2022-09-21T15:43:38.737Z,24.08
2022-09-21T15:46:07.701Z,24.08
2022-09-21T15:48:38.234Z,24.09
2022-09-21T15:51:24.661Z,24.09
2022-09-21T15:53:55.780Z,24.10
2022-09-21T15:56:25.936Z,24.09
2022-09-21T15:59:08.709Z,24.10
2022-09-21T16:01:50.786Z,24.02
2022-09-21T16:04:23.375Z,24.02
2022-09-21T16:07:24.839Z,23.93
2022-09-21T16:09:51.820Z,23.85
2022-09-21T16:12:41.746Z,23.79
2022-09-21T16:15:38.908Z,23.74
2022-09-21T16:18:06.937Z,23.71
2022-09-21T16:20:47.419Z,23.68
2022-09-21T16:23:17.355Z,23.66
2022-09-21T16:25:44.980Z,23.63
2022-09-21T16:28:15.417Z,23.63
2022-09-21T16:30:51.096Z,23.61
2022-09-21T16:33:41.291Z,23.60
2022-09-21T16:36:18.178Z,23.58
2022-09-21T16:38:47.038Z,23.57
2022-09-21T16:41:14.528Z,23.57
2022-09-21T16:43:43.596Z,23.56
2022-09-21T16:46:11.046Z,23.55
2022-09-21T16:48:39.997Z,23.54
2022-09-21T16:51:12.834Z,23.54
2022-09-21T16:53:39.395Z,23.51
2022-09-21T16:56:06.991Z,23.45
2022-09-21T16:58:34.922Z,23.50
2022-09-21T17:01:04.296Z,23.50
2022-09-21T17:03:34.730Z,23.48
2022-09-21T17:06:02.505Z,23.48
2022-09-21T17:08:30.253Z,23.47
2022-09-21T17:10:58.492Z,23.25
2022-09-21T17:13:25.059Z,23.46
2022-09-21T17:15:52.033Z,23.45
2022-09-21T17:18:18.570Z,23.45
2022-09-21T17:20:45.768Z,23.44
2022-09-21T17:23:12.572Z,23.43
2022-09-21T17:25:39.242Z,23.42
2022-09-21T17:28:26.212Z,23.42
2022-09-21T17:30:54.136Z,23.42
2022-09-21T17:33:21.443Z,23.41
2022-09-21T17:35:51.034Z,23.40
2022-09-21T17:38:18.143Z,23.41
2022-09-21T17:40:45.375Z,23.39
2022-09-21T17:43:39.435Z,23.39
2022-09-21T17:46:20.942Z,23.38
2022-09-21T17:48:47.936Z,23.38
2022-09-21T17:51:34.774Z,23.37
2022-09-21T17:54:01.783Z,23.38
2022-09-21T17:56:46.316Z,23.37
2022-09-21T17:59:26.179Z,23.36
2022-09-21T18:01:53.062Z,23.37
2022-09-21T18:04:20.116Z,23.33
2022-09-21T18:06:47.896Z,23.37
2022-09-21T18:09:14.757Z,23.32
2022-09-21T18:12:01.854Z,23.37
2022-09-21T18:14:40.366Z,23.37
2022-09-21T18:17:44.884Z,23.37
2022-09-21T18:20:39.401Z,23.36
2022-09-21T18:23:22.364Z,23.36
2022-09-21T18:25:57.290Z,23.39
2022-09-21T18:28:39.550Z,23.39
2022-09-21T18:31:19.791Z,23.40
2022-09-21T18:33:59.821Z,23.40
2022-09-21T18:36:37.139Z,23.41
2022-09-21T18:39:09.493Z,23.42
2022-09-21T18:42:10.913Z,23.41
2022-09-21T18:44:48.612Z,23.39
2022-09-21T18:47:23.036Z,23.40
2022-09-21T18:50:07.953Z,23.40
2022-09-21T18:52:53.145Z,23.39
2022-09-21T18:55:28.704Z,23.39
2022-09-21T18:57:59.743Z,23.32
2022-09-21T19:00:34.740Z,23.39
2022-09-21T19:03:17.698Z,23.38
2022-09-21T19:06:10.181Z,23.39
2022-09-21T19:08:54.918Z,23.38
2022-09-21T19:11:54.876Z,23.37
2022-09-21T19:14:40.293Z,23.38
2022-09-21T19:17:27.962Z,23.36
2022-09-21T19:20:03.735Z,23.35
2022-09-21T19:22:33.181Z,23.36
2022-09-21T19:25:05.010Z,23.36
2022-09-21T19:27:46.990Z,23.28
2022-09-21T19:30:15.406Z,23.37
2022-09-21T19:32:50.104Z,23.40
2022-09-21T19:35:18.930Z,23.40
2022-09-21T19:37:47.170Z,23.41
2022-09-21T19:40:18.587Z,23.42
2022-09-21T19:43:06.227Z,23.41
2022-09-21T19:45:51.929Z,23.42
2022-09-21T19:48:31.705Z,23.41
2022-09-21T19:51:00.193Z,23.41
2022-09-21T19:53:45.552Z,23.41
2022-09-21T19:56:34.497Z,23.40
2022-09-21T19:59:20.611Z,23.41
2022-09-21T20:01:53.820Z,23.42
2022-09-21T20:04:42.488Z,23.43
2022-09-21T20:07:44.151Z,23.41
2022-09-21T20:10:49.998Z,23.48
2022-09-21T20:13:38.137Z,23.50
2022-09-21T20:16:19.261Z,23.52
2022-09-21T20:19:07.589Z,23.54
2022-09-21T20:21:40.177Z,23.55
2022-09-21T20:24:37.445Z,23.57
2022-09-21T20:27:34.491Z,23.58
2022-09-21T20:30:06.989Z,23.58
2022-09-21T20:32:36.366Z,23.60
2022-09-21T20:35:03.612Z,23.60
2022-09-21T20:37:39.596Z,23.61
2022-09-21T20:40:06.836Z,23.62
2022-09-21T20:42:38.167Z,23.63
2022-09-21T20:45:07.259Z,23.63
2022-09-21T20:47:34.612Z,23.64
2022-09-21T20:50:01.206Z,23.66
2022-09-21T20:52:27.756Z,23.67
2022-09-21T20:54:54.303Z,23.67
2022-09-21T20:57:21.453Z,23.47
2022-09-21T20:59:48.152Z,23.69
2022-09-21T21:02:19.412Z,23.63
2022-09-21T21:04:45.941Z,23.69
2022-09-21T21:07:13.191Z,23.68
2022-09-21T21:09:39.730Z,23.68
2022-09-21T21:12:06.382Z,23.63
2022-09-21T21:14:33.000Z,23.61
2022-09-21T21:16:59.614Z,23.59
2022-09-21T21:19:26.401Z,23.56
2022-09-21T21:21:52.942Z,23.59
2022-09-21T21:24:37.843Z,23.59
2022-09-21T21:27:04.991Z,23.59
2022-09-21T21:29:32.005Z,23.39
2022-09-21T21:31:59.649Z,23.58
2022-09-21T21:34:26.681Z,23.58
2022-09-21T21:36:55.248Z,23.56
2022-09-21T21:39:21.727Z,23.55
2022-09-21T21:41:48.782Z,23.53
2022-09-21T21:44:15.780Z,23.52
2022-09-21T21:46:43.229Z,23.51
2022-09-21T21:49:10.033Z,23.51
2022-09-21T21:51:36.601Z,23.51
2022-09-21T21:54:03.269Z,23.49
2022-09-21T21:56:29.943Z,23.45
2022-09-21T21:58:56.811Z,23.48
2022-09-21T22:01:26.650Z,23.40
2022-09-21T22:03:55.899Z,23.47
2022-09-21T22:06:23.488Z,23.46
2022-09-21T22:08:51.030Z,23.47
2022-09-21T22:11:19.224Z,23.45
2022-09-21T22:13:46.536Z,23.46
2022-09-21T22:16:34.259Z,23.44
2022-09-21T22:19:03.604Z,23.44
2022-09-21T22:21:38.876Z,23.43
2022-09-21T22:24:06.438Z,23.43
2022-09-21T22:26:40.458Z,23.42
2022-09-21T22:29:09.481Z,23.43
2022-09-21T22:31:39.512Z,23.42
2022-09-21T22:34:06.559Z,23.42
2022-09-21T22:36:34.647Z,23.42
2022-09-21T22:39:01.611Z,23.41
2022-09-21T22:41:30.547Z,23.41
2022-09-21T22:43:58.784Z,23.41
2022-09-21T22:46:27.238Z,23.41
2022-09-21T22:48:54.140Z,23.40
2022-09-21T22:51:21.455Z,23.41
2022-09-21T22:53:49.491Z,23.41
2022-09-21T22:56:21.451Z,23.40
2022-09-21T22:58:50.960Z,23.41
2022-09-21T23:01:25.477Z,23.41
2022-09-21T23:03:58.108Z,23.40
2022-09-21T23:06:45.000Z,23.39
2022-09-21T23:09:18.414Z,23.39
2022-09-21T23:11:53.565Z,23.37
2022-09-21T23:14:21.995Z,23.36
2022-09-21T23:16:51.604Z,23.36
2022-09-21T23:19:18.335Z,23.38
2022-09-21T23:24:13.410Z,23.36
2022-09-21T23:26:40.163Z,23.37
2022-09-21T23:29:11.948Z,23.37
2022-09-21T23:31:43.794Z,23.36
2022-09-21T23:34:14.638Z,23.29
2022-09-21T23:36:42.397Z,23.35
2022-09-21T23:39:11.683Z,23.35
2022-09-21T23:41:38.300Z,23.35
2022-09-21T23:44:06.092Z,23.31
2022-09-21T23:46:36.079Z,23.32
2022-09-21T23:49:02.889Z,23.32
2022-09-21T23:51:32.195Z,23.29
2022-09-21T23:53:59.560Z,23.31
2022-09-21T23:56:28.894Z,23.31
2022-09-21T23:58:56.952Z,23.30
